createdAt,value
2018-09-09T00:00:49.796Z,11.80
2018-09-09T00:03:18.619Z,11.79
2018-09-09T00:05:46.960Z,11.81
2018-09-09T00:08:15.288Z,11.80
2018-09-09T00:10:43.664Z,11.81
2018-09-09T00:13:11.988Z,11.98
2018-09-09T00:15:40.340Z,11.99
2018-09-09T00:18:08.660Z,11.92
2018-09-09T00:20:36.992Z,11.97
2018-09-09T00:23:05.344Z,11.92
2018-09-09T00:25:33.737Z,11.83
2018-09-09T00:28:02.209Z,11.66
2018-09-09T00:30:30.517Z,11.70
2018-09-09T00:32:59.144Z,11.60
2018-09-09T00:35:27.472Z,11.61
2018-09-09T00:37:55.823Z,11.35
2018-09-09T00:40:24.153Z,11.29
2018-09-09T00:42:52.532Z,11.27
2018-09-09T00:45:20.863Z,11.29
2018-09-09T00:47:49.196Z,11.25
2018-09-09T00:50:22.735Z,11.25
2018-09-09T00:52:56.315Z,11.37
2018-09-09T00:55:24.688Z,11.44
2018-09-09T00:57:52.998Z,11.59
2018-09-09T01:00:25.471Z,11.54
2018-09-09T01:02:53.809Z,11.57
2018-09-09T01:05:22.129Z,11.70
2018-09-09T01:07:50.480Z,11.80
2018-09-09T01:10:18.849Z,11.99
2018-09-09T01:12:47.191Z,11.98
2018-09-09T01:15:15.536Z,11.89
2018-09-09T01:17:43.872Z,11.91
2018-09-09T01:20:12.315Z,11.89
2018-09-09T01:22:40.709Z,11.92
2018-09-09T01:25:09.052Z,11.96
2018-09-09T01:27:37.444Z,11.93
2018-09-09T01:30:05.929Z,11.85
2018-09-09T01:32:34.276Z,11.83
2018-09-09T01:35:02.600Z,11.66
2018-09-09T01:37:30.953Z,11.42
2018-09-09T01:39:59.716Z,11.34
2018-09-09T01:42:28.055Z,11.31
2018-09-09T01:44:56.376Z,11.34
2018-09-09T01:47:24.920Z,11.34
2018-09-09T01:49:53.252Z,11.21
2018-09-09T01:52:21.612Z,11.16
2018-09-09T01:54:49.936Z,11.21
2018-09-09T01:57:18.288Z,11.05
2018-09-09T01:59:46.620Z,11.11
2018-09-09T02:02:15.342Z,11.07
2018-09-09T02:04:43.672Z,11.08
2018-09-09T02:07:12.020Z,11.11
2018-09-09T02:09:40.356Z,11.03
2018-09-09T02:12:08.718Z,10.94
2018-09-09T02:14:37.028Z,10.83
2018-09-09T02:17:05.361Z,10.92
2018-09-09T02:19:33.812Z,10.89
2018-09-09T02:22:02.192Z,10.85
2018-09-09T02:24:30.516Z,10.77
2018-09-09T02:26:59.008Z,10.74
2018-09-09T02:29:27.332Z,10.72
2018-09-09T02:31:55.700Z,10.75
2018-09-09T02:34:24.030Z,10.72
2018-09-09T02:36:52.396Z,10.67
2018-09-09T02:39:23.748Z,10.50
2018-09-09T02:41:52.078Z,10.55
2018-09-09T02:44:20.419Z,10.46
2018-09-09T02:46:48.774Z,10.40
2018-09-09T02:49:17.127Z,10.37
2018-09-09T02:51:45.467Z,10.34
2018-09-09T02:54:13.832Z,10.41
2018-09-09T02:56:42.164Z,10.30
2018-09-09T02:59:10.513Z,10.36
2018-09-09T03:01:38.831Z,10.43
2018-09-09T03:04:07.348Z,10.55
2018-09-09T03:06:35.696Z,10.58
2018-09-09T03:09:04.960Z,10.55
2018-09-09T03:11:33.456Z,10.59
2018-09-09T03:14:01.812Z,10.64
2018-09-09T03:16:30.135Z,10.72
2018-09-09T03:18:58.476Z,10.77
2018-09-09T03:21:26.809Z,10.84
2018-09-09T03:23:55.156Z,10.96
2018-09-09T03:26:23.488Z,10.98
2018-09-09T03:28:51.906Z,11.00
2018-09-09T03:31:20.168Z,11.12
2018-09-09T03:33:48.504Z,11.08
2018-09-09T03:36:16.828Z,11.09
2018-09-09T03:38:45.180Z,11.21
2018-09-09T03:41:13.519Z,11.13
2018-09-09T03:43:41.872Z,11.19
2018-09-09T03:46:10.217Z,11.21
2018-09-09T03:48:38.557Z,11.22
2018-09-09T03:51:06.892Z,11.32
2018-09-09T03:53:35.233Z,11.56
2018-09-09T03:56:03.905Z,11.46
2018-09-09T03:58:32.249Z,11.64
2018-09-09T04:01:00.560Z,11.54
2018-09-09T04:03:29.232Z,11.67
2018-09-09T04:05:57.708Z,11.58
2018-09-09T04:08:26.057Z,11.62
2018-09-09T04:10:54.377Z,11.54
2018-09-09T04:13:22.745Z,11.44
2018-09-09T04:15:51.066Z,11.59
2018-09-09T04:18:19.413Z,11.47
2018-09-09T04:20:47.752Z,11.30
2018-09-09T04:23:16.098Z,11.31
2018-09-09T04:25:44.417Z,11.26
2018-09-09T04:28:12.780Z,11.16
2018-09-09T04:30:41.132Z,11.07
2018-09-09T04:33:09.468Z,11.09
2018-09-09T04:35:37.813Z,11.25
2018-09-09T04:38:06.181Z,11.33
2018-09-09T04:40:34.512Z,11.21
2018-09-09T04:43:02.873Z,11.37
2018-09-09T04:45:31.192Z,11.33
2018-09-09T04:47:59.708Z,11.28
2018-09-09T04:50:28.037Z,11.29
2018-09-09T04:52:56.384Z,11.36
2018-09-09T04:55:24.700Z,11.36
2018-09-09T04:57:54.462Z,11.46
2018-09-09T05:00:22.837Z,11.56
2018-09-09T05:02:51.178Z,11.54
2018-09-09T05:05:19.520Z,11.56
2018-09-09T05:07:47.840Z,11.58
2018-09-09T05:10:16.187Z,11.62
2018-09-09T05:12:44.552Z,11.92
2018-09-09T05:15:12.941Z,11.79
2018-09-09T05:17:41.469Z,11.84
2018-09-09T05:20:09.828Z,11.91
2018-09-09T05:22:38.412Z,12.04
2018-09-09T05:25:06.766Z,12.05
2018-09-09T05:27:35.097Z,12.15
2018-09-09T05:30:03.488Z,12.16
2018-09-09T05:32:31.808Z,12.23
2018-09-09T05:35:00.161Z,12.33
2018-09-09T05:37:28.513Z,12.34
2018-09-09T05:39:56.872Z,12.54
2018-09-09T05:42:25.244Z,12.64
2018-09-09T05:44:53.576Z,12.65
2018-09-09T05:47:22.009Z,12.80
2018-09-09T05:49:50.373Z,13.00
2018-09-09T05:52:18.699Z,13.00
2018-09-09T05:54:47.068Z,13.20
2018-09-09T05:57:15.432Z,13.39
2018-09-09T05:59:44.480Z,13.54
2018-09-09T06:02:12.833Z,13.87
2018-09-09T06:04:41.162Z,13.89
2018-09-09T06:07:09.491Z,14.19
2018-09-09T06:09:37.844Z,14.20
2018-09-09T06:12:06.189Z,14.27
2018-09-09T06:14:34.532Z,14.57
2018-09-09T06:17:02.859Z,15.04
2018-09-09T06:19:31.215Z,15.18
2018-09-09T06:21:59.556Z,15.31
2018-09-09T06:24:27.895Z,15.74
2018-09-09T06:26:56.256Z,15.96
2018-09-09T06:29:24.888Z,16.91
2018-09-09T06:31:53.656Z,17.76
2018-09-09T06:34:22.007Z,19.05
2018-09-09T06:36:50.343Z,20.67
2018-09-09T06:39:18.685Z,21.86
2018-09-09T06:41:47.008Z,22.26
2018-09-09T06:44:15.373Z,22.74
2018-09-09T06:46:43.692Z,22.03
2018-09-09T06:49:12.036Z,22.27
2018-09-09T06:51:40.367Z,22.11
2018-09-09T06:54:08.716Z,21.86
2018-09-09T06:56:37.052Z,19.22
2018-09-09T06:59:05.952Z,19.46
2018-09-09T07:01:34.285Z,18.96
2018-09-09T07:04:02.628Z,20.04
2018-09-09T07:06:30.972Z,21.04
2018-09-09T07:08:59.296Z,20.73
2018-09-09T07:11:27.781Z,20.23
2018-09-09T07:13:55.992Z,19.40
2018-09-09T07:16:24.348Z,19.16
2018-09-09T07:18:52.668Z,19.21
2018-09-09T07:21:21.020Z,19.19
2018-09-09T07:23:49.352Z,20.13
2018-09-09T07:26:17.748Z,22.49
2018-09-09T07:28:46.072Z,22.95
2018-09-09T07:31:14.512Z,23.52
2018-09-09T07:33:42.757Z,22.82
2018-09-09T07:36:11.112Z,21.95
2018-09-09T07:38:39.427Z,21.92
2018-09-09T07:41:07.884Z,21.19
2018-09-09T07:43:36.219Z,20.73
2018-09-09T07:46:04.568Z,19.37
2018-09-09T07:48:32.894Z,20.03
2018-09-09T07:51:01.247Z,21.22
2018-09-09T07:53:29.561Z,23.02
2018-09-09T07:55:57.916Z,23.88
2018-09-09T07:58:26.247Z,22.94
2018-09-09T08:00:54.608Z,24.89
2018-09-09T08:03:22.940Z,26.65
2018-09-09T08:05:51.301Z,27.06
2018-09-09T08:08:19.636Z,26.91
2018-09-09T08:10:47.984Z,24.94
2018-09-09T08:13:16.308Z,24.28
2018-09-09T08:15:44.672Z,24.89
2018-09-09T08:18:13.009Z,27.48
2018-09-09T08:20:41.456Z,28.58
2018-09-09T08:23:09.873Z,27.83
2018-09-09T08:25:38.248Z,28.67
2018-09-09T08:28:06.584Z,29.17
2018-09-09T08:30:34.944Z,28.06
2018-09-09T08:33:03.285Z,25.93
2018-09-09T08:35:31.655Z,24.67
2018-09-09T08:38:00.013Z,23.41
2018-09-09T08:40:28.394Z,23.20
2018-09-09T08:42:56.854Z,24.43
2018-09-09T08:45:30.451Z,24.25
2018-09-09T08:48:00.872Z,26.18
2018-09-09T08:50:29.623Z,26.19
2018-09-09T08:52:57.962Z,25.43
2018-09-09T08:55:26.321Z,25.50
2018-09-09T08:57:54.792Z,23.91
2018-09-09T09:00:23.165Z,22.96
2018-09-09T09:02:51.513Z,22.87
2018-09-09T09:05:19.880Z,22.58
2018-09-09T09:07:48.808Z,24.00
2018-09-09T09:10:17.145Z,23.21
2018-09-09T09:12:45.472Z,23.72
2018-09-09T09:15:14.547Z,24.43
2018-09-09T09:17:42.870Z,24.42
2018-09-09T09:20:11.207Z,24.70
2018-09-09T09:22:39.528Z,27.57
2018-09-09T09:25:07.921Z,27.95
2018-09-09T09:27:36.257Z,25.18
2018-09-09T09:30:04.656Z,23.89
2018-09-09T09:32:33.043Z,24.29
2018-09-09T09:35:01.368Z,23.88
2018-09-09T09:37:29.699Z,23.81
2018-09-09T09:39:58.021Z,24.02
2018-09-09T09:42:26.377Z,24.67
2018-09-09T09:44:54.720Z,27.42
2018-09-09T09:47:23.068Z,29.92
2018-09-09T09:49:51.413Z,29.61
2018-09-09T09:52:20.185Z,29.34
2018-09-09T09:54:48.537Z,29.92
2018-09-09T09:57:16.891Z,30.93
2018-09-09T09:59:45.228Z,30.55
2018-09-09T10:02:13.589Z,28.94
2018-09-09T10:04:41.920Z,29.51
2018-09-09T10:07:10.285Z,29.46
2018-09-09T10:09:39.016Z,28.40
2018-09-09T10:12:07.367Z,30.56
2018-09-09T10:14:35.713Z,32.84
2018-09-09T10:17:06.652Z,33.78
2018-09-09T10:19:34.997Z,32.76
2018-09-09T10:22:03.368Z,32.35
2018-09-09T10:24:31.701Z,34.63
2018-09-09T10:27:00.060Z,32.06
2018-09-09T10:29:28.712Z,33.95
2018-09-09T10:31:57.085Z,37.05
2018-09-09T10:34:25.423Z,37.40
2018-09-09T10:36:53.788Z,34.66
2018-09-09T10:39:22.121Z,34.42
2018-09-09T10:41:50.473Z,33.85
2018-09-09T10:44:18.804Z,32.28
2018-09-09T10:46:47.605Z,34.92
2018-09-09T10:49:15.864Z,32.79
2018-09-09T10:51:44.201Z,32.92
2018-09-09T10:54:12.540Z,32.73
2018-09-09T10:56:40.881Z,35.70
2018-09-09T10:59:09.231Z,37.94
2018-09-09T11:01:42.688Z,37.64
2018-09-09T11:04:12.384Z,37.87
2018-09-09T11:06:42.738Z,37.11
2018-09-09T11:09:12.437Z,38.52
2018-09-09T11:11:44.902Z,36.65
2018-09-09T11:14:19.878Z,36.80
2018-09-09T11:16:52.842Z,37.27
2018-09-09T11:19:23.271Z,36.45
2018-09-09T11:21:55.810Z,37.14
2018-09-09T11:24:27.216Z,36.60
2018-09-09T11:26:57.900Z,37.29
2018-09-09T11:29:28.616Z,37.54
2018-09-09T11:32:00.475Z,38.44
2018-09-09T11:34:30.177Z,39.40
2018-09-09T11:37:04.760Z,35.47
2018-09-09T11:39:40.049Z,37.28
2018-09-09T11:42:10.291Z,37.25
2018-09-09T11:44:40.549Z,39.62
2018-09-09T11:47:13.958Z,39.82
2018-09-09T11:49:45.871Z,38.18
2018-09-09T11:52:15.993Z,38.40
2018-09-09T11:54:46.036Z,38.22
2018-09-09T11:57:16.828Z,36.89
2018-09-09T11:59:48.869Z,36.24
2018-09-09T12:02:19.124Z,32.82
2018-09-09T12:04:53.423Z,31.30
2018-09-09T12:07:26.907Z,33.57
2018-09-09T12:09:59.580Z,33.13
2018-09-09T12:12:35.321Z,34.63
2018-09-09T12:15:07.483Z,36.62
2018-09-09T12:17:40.623Z,37.48
2018-09-09T12:20:13.719Z,37.16
2018-09-09T12:22:46.645Z,36.29
2018-09-09T12:25:19.556Z,35.62
2018-09-09T12:27:54.614Z,35.79
2018-09-09T12:30:25.501Z,37.95
2018-09-09T12:32:57.029Z,39.10
2018-09-09T12:35:36.525Z,35.27
2018-09-09T12:38:07.750Z,37.43
2018-09-09T12:40:37.469Z,37.84
2018-09-09T12:43:16.844Z,35.99
2018-09-09T12:46:01.563Z,35.90
2018-09-09T12:48:40.919Z,36.67
2018-09-09T12:51:15.512Z,36.24
2018-09-09T12:53:46.145Z,37.00
2018-09-09T12:56:15.835Z,34.65
2018-09-09T12:58:45.408Z,34.44
2018-09-09T13:01:15.891Z,31.53
2018-09-09T13:03:51.661Z,30.54
2018-09-09T13:06:21.628Z,31.51
2018-09-09T13:08:54.654Z,32.87
2018-09-09T13:11:24.094Z,33.42
2018-09-09T13:13:54.663Z,32.57
2018-09-09T13:16:24.602Z,31.26
2018-09-09T13:18:59.967Z,29.74
2018-09-09T13:21:30.680Z,30.49
2018-09-09T13:24:01.855Z,33.08
2018-09-09T13:26:32.803Z,33.91
2018-09-09T13:29:05.797Z,35.70
2018-09-09T13:31:39.043Z,35.00
2018-09-09T13:34:09.940Z,33.38
2018-09-09T13:36:41.825Z,34.16
2018-09-09T13:39:11.665Z,34.68
2018-09-09T13:41:44.517Z,35.90
2018-09-09T13:44:14.428Z,35.63
2018-09-09T13:46:44.673Z,34.52
2018-09-09T13:49:14.922Z,33.62
2018-09-09T13:51:46.945Z,32.44
2018-09-09T13:54:16.547Z,30.66
2018-09-09T13:56:50.705Z,31.60
2018-09-09T13:59:21.739Z,33.70
2018-09-09T14:01:52.168Z,33.64
2018-09-09T14:04:28.092Z,33.85
2018-09-09T14:07:00.349Z,33.75
2018-09-09T14:09:33.038Z,35.19
2018-09-09T14:12:02.788Z,34.72
2018-09-09T14:14:35.207Z,35.10
2018-09-09T14:17:04.984Z,34.16
2018-09-09T14:19:35.506Z,32.55
2018-09-09T14:22:05.084Z,33.77
2018-09-09T14:24:36.301Z,32.59
2018-09-09T14:27:14.082Z,29.25
2018-09-09T14:29:43.897Z,29.46
2018-09-09T14:32:14.633Z,28.49
2018-09-09T14:34:45.369Z,28.85
2018-09-09T14:37:15.652Z,28.48
2018-09-09T14:39:46.514Z,28.36
2018-09-09T14:42:17.643Z,28.67
2018-09-09T14:44:48.595Z,28.31
2018-09-09T14:47:18.405Z,27.90
2018-09-09T14:49:50.189Z,28.04
2018-09-09T14:52:22.685Z,27.75
2018-09-09T14:54:54.444Z,27.78
2018-09-09T14:57:23.889Z,27.64
2018-09-09T14:59:54.436Z,27.81
2018-09-09T15:02:24.404Z,27.88
2018-09-09T15:04:59.712Z,27.75
2018-09-09T15:07:32.124Z,28.07
2018-09-09T15:10:03.256Z,28.67
2018-09-09T15:12:35.717Z,28.41
2018-09-09T15:15:07.770Z,28.49
2018-09-09T15:17:39.369Z,28.05
2018-09-09T15:20:09.216Z,28.00
2018-09-09T15:22:42.533Z,28.03
2018-09-09T15:25:12.772Z,27.17
2018-09-09T15:27:45.160Z,27.73
2018-09-09T15:30:21.937Z,28.05
2018-09-09T15:32:54.136Z,28.83
2018-09-09T15:35:25.014Z,28.78
2018-09-09T15:37:55.824Z,28.89
2018-09-09T15:40:26.315Z,28.18
2018-09-09T15:43:01.108Z,27.61
2018-09-09T15:45:34.471Z,27.15
2018-09-09T15:48:07.129Z,26.24
2018-09-09T15:50:37.068Z,26.58
2018-09-09T15:53:07.543Z,27.06
2018-09-09T15:55:39.796Z,26.75
2018-09-09T15:58:09.454Z,26.05
2018-09-09T16:00:39.362Z,25.99
2018-09-09T16:03:09.008Z,25.86
2018-09-09T16:05:39.119Z,25.77
2018-09-09T16:08:09.991Z,25.57
2018-09-09T16:10:41.556Z,25.68
2018-09-09T16:13:11.025Z,25.89
2018-09-09T16:15:41.683Z,25.77
2018-09-09T16:18:13.334Z,25.81
2018-09-09T16:20:43.162Z,25.95
2018-09-09T16:23:12.511Z,25.54
2018-09-09T16:25:42.989Z,25.36
2018-09-09T16:28:13.858Z,25.04
2018-09-09T16:30:47.666Z,25.03
2018-09-09T16:33:17.106Z,25.14
2018-09-09T16:35:53.135Z,24.63
2018-09-09T16:38:24.408Z,24.25
2018-09-09T16:40:55.716Z,24.39
2018-09-09T16:43:26.320Z,24.64
2018-09-09T16:45:57.551Z,24.45
2018-09-09T16:48:27.494Z,24.37
2018-09-09T16:50:56.913Z,24.19
2018-09-09T16:53:36.152Z,24.15
2018-09-09T16:56:08.157Z,23.91
2018-09-09T16:58:39.000Z,23.88
2018-09-09T17:01:16.328Z,23.74
2018-09-09T17:03:48.207Z,23.55
2018-09-09T17:06:27.537Z,23.40
2018-09-09T17:09:00.309Z,23.24
2018-09-09T17:11:30.293Z,23.21
2018-09-09T17:14:00.084Z,23.12
2018-09-09T17:16:31.087Z,22.88
2018-09-09T17:19:06.406Z,22.82
2018-09-09T17:21:38.880Z,22.61
2018-09-09T17:24:08.289Z,22.62
2018-09-09T17:26:37.766Z,22.44
2018-09-09T17:29:07.895Z,22.48
2018-09-09T17:31:38.736Z,22.12
2018-09-09T17:34:08.520Z,21.78
2018-09-09T17:36:39.251Z,21.51
2018-09-09T17:39:13.216Z,21.46
2018-09-09T17:41:43.870Z,21.18
2018-09-09T17:44:14.275Z,20.88
2018-09-09T17:46:45.095Z,20.50
2018-09-09T17:49:14.698Z,20.21
2018-09-09T17:51:44.384Z,19.94
2018-09-09T17:54:19.952Z,19.71
2018-09-09T17:56:52.137Z,19.53
2018-09-09T17:59:21.893Z,19.53
2018-09-09T18:01:55.095Z,19.34
2018-09-09T18:04:29.653Z,19.04
2018-09-09T18:07:03.348Z,18.88
2018-09-09T18:09:34.240Z,18.81
2018-09-09T18:12:03.440Z,18.59
2018-09-09T18:14:38.471Z,18.28
2018-09-09T18:17:08.247Z,17.95
2018-09-09T18:19:39.517Z,17.91
2018-09-09T18:22:09.888Z,17.92
2018-09-09T18:24:40.116Z,17.89
2018-09-09T18:27:11.222Z,17.82
2018-09-09T18:29:41.668Z,17.80
2018-09-09T18:32:11.816Z,17.63
2018-09-09T18:34:41.452Z,17.51
2018-09-09T18:37:12.510Z,17.40
2018-09-09T18:39:43.093Z,17.12
2018-09-09T18:42:11.416Z,16.92
2018-09-09T18:44:40.177Z,16.81
2018-09-09T18:47:08.545Z,16.71
2018-09-09T18:49:36.884Z,16.50
2018-09-09T18:52:05.231Z,16.33
2018-09-09T18:54:33.588Z,16.41
2018-09-09T18:57:02.073Z,16.18
2018-09-09T18:59:30.580Z,15.98
2018-09-09T19:01:58.994Z,15.82
2018-09-09T19:04:27.313Z,15.90
2018-09-09T19:06:55.688Z,15.97
2018-09-09T19:09:24.453Z,15.73
2018-09-09T19:11:52.897Z,15.87
2018-09-09T19:14:21.236Z,15.90
2018-09-09T19:16:49.616Z,15.96
2018-09-09T19:19:18.080Z,15.74
2018-09-09T19:21:46.475Z,15.59
2018-09-09T19:24:14.801Z,15.61
2018-09-09T19:26:43.566Z,15.54
2018-09-09T19:29:11.878Z,15.37
2018-09-09T19:31:40.249Z,15.34
2018-09-09T19:34:09.496Z,15.35
2018-09-09T19:36:37.841Z,15.39
2018-09-09T19:39:08.612Z,15.04
2018-09-09T19:41:36.972Z,15.01
2018-09-09T19:44:05.526Z,14.98
2018-09-09T19:46:33.848Z,14.96
2018-09-09T19:49:02.193Z,14.89
2018-09-09T19:51:44.543Z,14.84
2018-09-09T19:54:12.864Z,14.93
2018-09-09T19:56:41.224Z,14.99
2018-09-09T19:59:09.601Z,14.59
2018-09-09T20:01:38.045Z,14.62
2018-09-09T20:04:06.372Z,14.42
2018-09-09T20:06:34.720Z,14.45
2018-09-09T20:09:03.616Z,14.25
2018-09-09T20:11:31.948Z,14.19
2018-09-09T20:14:00.817Z,14.20
2018-09-09T20:16:29.160Z,14.04
2018-09-09T20:18:57.505Z,13.87
2018-09-09T20:21:25.864Z,13.89
2018-09-09T20:23:54.208Z,13.75
2018-09-09T20:26:22.547Z,13.66
2018-09-09T20:28:50.880Z,13.73
2018-09-09T20:31:19.228Z,13.83
2018-09-09T20:33:47.951Z,13.76
2018-09-09T20:36:16.320Z,13.70
2018-09-09T20:38:44.702Z,13.57
2018-09-09T20:41:13.016Z,13.51
2018-09-09T20:43:41.344Z,13.38
2018-09-09T20:46:09.697Z,13.41
2018-09-09T20:48:38.041Z,13.36
2018-09-09T20:51:06.725Z,13.33
2018-09-09T20:53:35.352Z,13.20
2018-09-09T20:56:03.712Z,13.00
2018-09-09T20:58:32.100Z,13.08
2018-09-09T21:01:00.440Z,13.04
2018-09-09T21:03:28.749Z,12.87
2018-09-09T21:05:57.117Z,12.84
2018-09-09T21:08:25.441Z,12.72
2018-09-09T21:10:54.124Z,12.72
2018-09-09T21:13:22.440Z,12.75
2018-09-09T21:15:50.780Z,12.80
2018-09-09T21:18:19.123Z,12.93
2018-09-09T21:20:47.477Z,13.05
2018-09-09T21:23:15.801Z,12.92
2018-09-09T21:25:44.141Z,12.77
2018-09-09T21:28:12.464Z,12.76
2018-09-09T21:30:41.188Z,12.65
2018-09-09T21:33:09.528Z,12.55
2018-09-09T21:35:38.167Z,12.46
2018-09-09T21:38:06.540Z,12.51
2018-09-09T21:40:34.855Z,12.39
2018-09-09T21:43:03.175Z,12.46
2018-09-09T21:45:31.488Z,12.41
2018-09-09T21:47:59.819Z,12.39
2018-09-09T21:50:28.128Z,12.43
2018-09-09T21:52:56.474Z,12.45
2018-09-09T21:55:24.829Z,12.56
2018-09-09T21:57:53.185Z,12.54
2018-09-09T22:00:21.720Z,12.50
2018-09-09T22:02:50.053Z,12.53
2018-09-09T22:05:18.384Z,12.54
2018-09-09T22:07:46.743Z,12.65
2018-09-09T22:10:15.069Z,12.67
2018-09-09T22:12:43.428Z,12.73
2018-09-09T22:15:11.748Z,12.65
2018-09-09T22:17:40.093Z,12.67
2018-09-09T22:20:08.536Z,12.67
2018-09-09T22:22:36.883Z,12.64
2018-09-09T22:25:05.696Z,12.75
2018-09-09T22:27:34.050Z,12.73
2018-09-09T22:30:02.392Z,12.62
2018-09-09T22:32:30.731Z,12.72
2018-09-09T22:34:59.052Z,12.56
2018-09-09T22:37:27.412Z,12.60
2018-09-09T22:39:56.048Z,12.70
2018-09-09T22:42:24.388Z,12.72
2018-09-09T22:44:52.744Z,12.72
2018-09-09T22:47:21.096Z,12.59
2018-09-09T22:49:49.415Z,12.55
2018-09-09T22:52:17.760Z,12.51
2018-09-09T22:54:46.089Z,12.38
2018-09-09T22:57:14.433Z,12.57
2018-09-09T22:59:42.765Z,12.51
2018-09-09T23:02:11.100Z,12.64
2018-09-09T23:04:39.428Z,12.45
2018-09-09T23:07:07.802Z,12.49
2018-09-09T23:09:36.563Z,12.57
2018-09-09T23:12:04.907Z,12.55
2018-09-09T23:14:33.251Z,12.57
2018-09-09T23:17:01.597Z,12.57
2018-09-09T23:19:29.979Z,12.74
2018-09-09T23:21:58.319Z,12.53
2018-09-09T23:24:26.635Z,12.59
2018-09-09T23:26:54.976Z,12.52
2018-09-09T23:29:23.298Z,12.56
2018-09-09T23:31:51.640Z,12.32
2018-09-09T23:34:19.963Z,12.09
2018-09-09T23:36:48.556Z,12.01
2018-09-09T23:39:16.884Z,11.96
2018-09-09T23:41:45.205Z,11.93
2018-09-09T23:44:13.556Z,11.85
2018-09-09T23:46:41.863Z,11.88
2018-09-09T23:49:10.192Z,11.74
2018-09-09T23:51:38.504Z,11.62
2018-09-09T23:54:06.984Z,11.52
2018-09-09T23:56:35.316Z,11.56
2018-09-09T23:59:03.660Z,11.69
